Time;durP1;ratioP1;P1;durP2;ratioP2;P2;SDS_P1;SDS_P2;PMS_P1;PMS_P2;Temp;Humidity;BMP_temperature;BMP_pressure;BME280_temperature;BME280_humidity;BME280_pressure;Samples;Min_cycle;Max_cycle;Signal;HPM_P1;HPM_P2
2022/09/23 00:01:57;;;;;;;6.07;3.40;;;10.20;99.90;;;;;;4976321;28;20226;-63
2022/09/23 00:04:24;;;;;;;4.63;3.35;;;10.10;98.30;;;;;;4941729;28;20238;-63
2022/09/23 00:06:51;;;;;;;4.28;3.53;;;9.90;99.30;;;;;;4955015;28;20856;-63
2022/09/23 00:09:18;;;;;;;4.22;3.38;;;10.10;98.90;;;;;;4958215;28;20207;-63
2022/09/23 00:11:45;;;;;;;7.68;3.67;;;10.10;98.40;;;;;;4975056;28;20241;-63
2022/09/23 00:14:12;;;;;;;5.63;3.05;;;10.00;99.90;;;;;;4948455;28;20220;-63
2022/09/23 00:16:39;;;;;;;4.78;3.90;;;10.10;98.20;;;;;;4964421;28;21184;-63
2022/09/23 00:19:07;;;;;;;5.57;3.63;;;10.00;99.90;;;;;;4943950;28;20215;-63
2022/09/23 00:21:34;;;;;;;6.28;3.53;;;10.10;99.10;;;;;;4968858;28;20261;-63
2022/09/23 00:24:01;;;;;;;7.22;3.75;;;10.10;99.80;;;;;;4954828;28;20207;-63
2022/09/23 00:26:28;;;;;;;4.65;3.83;;;10.30;99.90;;;;;;4941657;28;20228;-63
2022/09/23 00:28:54;;;;;;;4.50;3.30;;;10.00;98.40;;;;;;4948071;28;20216;-63
2022/09/23 00:31:22;;;;;;;5.10;3.50;;;10.20;99.90;;;;;;4951411;28;20235;-63
2022/09/23 00:33:53;;;;;;;5.88;3.40;;;10.00;99.90;;;;;;4941732;28;20227;-63
2022/09/23 00:36:21;;;;;;;4.03;3.20;;;10.00;99.90;;;;;;4956253;28;20204;-63
2022/09/23 00:38:48;;;;;;;9.60;3.45;;;10.00;99.80;;;;;;4958731;28;20928;-63
2022/09/23 00:41:15;;;;;;;4.10;3.25;;;10.00;99.50;;;;;;4959560;28;20215;-63
2022/09/23 00:43:44;;;;;;;3.85;3.20;;;9.80;99.90;;;;;;4953881;28;20277;-63
2022/09/23 00:46:15;;;;;;;5.57;3.38;;;10.70;99.20;;;;;;4946136;28;20203;-63
2022/09/23 00:48:43;;;;;;;5.80;3.63;;;9.80;99.90;;;;;;4942996;28;20215;-63
2022/09/23 00:51:16;;;;;;;6.40;3.75;;;9.90;99.80;;;;;;4974326;28;20230;-63
2022/09/23 00:53:46;;;;;;;4.50;3.22;;;12.20;99.90;;;;;;4960945;28;20207;-63
2022/09/23 00:56:14;;;;;;;4.85;3.33;;;11.90;99.90;;;;;;4966298;28;20923;-63
2022/09/23 00:58:44;;;;;;;8.45;3.50;;;9.90;99.90;;;;;;4956078;28;20211;-63
2022/09/23 01:01:13;;;;;;;4.13;3.40;;;9.90;99.90;;;;;;4959279;28;20207;-63
2022/09/23 01:03:41;;;;;;;8.40;3.25;;;10.00;99.90;;;;;;4961107;28;20316;-64
2022/09/23 01:06:08;;;;;;;4.22;3.30;;;9.80;99.90;;;;;;4942377;28;20210;-63
2022/09/23 01:08:36;;;;;;;4.28;3.45;;;9.80;99.40;;;;;;4956204;28;20207;-64
2022/09/23 01:11:15;;;;;;;4.20;3.63;;;9.80;99.70;;;;;;4968088;28;20229;-63
2022/09/23 01:13:52;;;;;;;3.83;2.88;;;9.80;99.90;;;;;;4952461;28;20199;-63
2022/09/23 01:16:27;;;;;;;3.42;3.10;;;9.70;99.90;;;;;;4964716;28;20207;-63
2022/09/23 01:19:00;;;;;;;7.13;3.67;;;9.80;99.90;;;;;;4953674;28;20224;-63
2022/09/23 01:21:44;;;;;;;4.72;3.53;;;9.70;99.90;;;;;;4939059;28;20215;-63
2022/09/23 01:24:37;;;;;;;8.40;4.07;;;9.70;99.90;;;;;;4967249;28;20207;-62
2022/09/23 01:27:30;;;;;;;4.03;3.63;;;9.70;99.90;;;;;;4958284;28;20207;-63
2022/09/23 01:30:22;;;;;;;3.83;3.10;;;9.70;99.90;;;;;;4968758;28;20207;-63
2022/09/23 01:33:08;;;;;;;5.05;3.60;;;9.70;99.90;;;;;;4968096;28;20258;-63
2022/09/23 01:35:46;;;;;;;5.28;3.70;;;9.50;99.90;;;;;;4928242;28;21273;-63
2022/09/23 01:38:26;;;;;;;4.95;3.58;;;9.60;99.90;;;;;;4969039;28;20198;-63
2022/09/23 01:41:01;;;;;;;9.40;3.55;;;9.60;99.90;;;;;;4955281;28;20201;-60
2022/09/23 01:43:37;;;;;;;5.70;3.57;;;8.50;99.90;;;;;;4954405;28;20195;-61
2022/09/23 01:46:11;;;;;;;4.45;3.67;;;9.60;99.90;;;;;;4960851;28;20199;-61
2022/09/23 01:48:44;;;;;;;6.07;3.40;;;9.90;99.90;;;;;;4962664;28;20208;-61
2022/09/23 01:51:15;;;;;;;3.72;3.35;;;9.60;99.90;;;;;;4939370;28;20231;-61
2022/09/23 01:53:47;;;;;;;3.97;3.38;;;9.50;99.90;;;;;;4955193;28;20206;-62
2022/09/23 01:56:20;;;;;;;4.53;3.40;;;9.70;99.90;;;;;;4945906;28;20230;-60
2022/09/23 01:58:55;;;;;;;7.50;3.53;;;9.90;99.90;;;;;;4952907;28;20219;-61
2022/09/23 02:01:30;;;;;;;6.33;3.30;;;9.70;99.90;;;;;;4965034;28;21724;-61
2022/09/23 02:04:04;;;;;;;7.07;3.67;;;13.40;99.90;;;;;;4936300;28;20214;-61
2022/09/23 02:06:36;;;;;;;3.70;3.35;;;9.70;99.90;;;;;;4945092;28;20871;-61
2022/09/23 02:09:07;;;;;;;7.35;3.72;;;9.60;99.90;;;;;;4963833;28;20675;-61
2022/09/23 02:11:35;;;;;;;6.43;4.15;;;9.70;99.90;;;;;;4958036;28;20234;-60
2022/09/23 02:14:05;;;;;;;4.18;3.42;;;9.50;99.90;;;;;;4945332;28;20262;-61
2022/09/23 02:16:38;;;;;;;14.75;4.25;;;9.70;99.90;;;;;;4953033;28;20214;-61
2022/09/23 02:19:09;;;;;;;7.57;3.95;;;9.80;99.90;;;;;;4955468;28;20207;-60
2022/09/23 02:21:41;;;;;;;5.95;4.05;;;9.80;99.90;;;;;;4946046;28;20227;-61
2022/09/23 02:24:15;;;;;;;4.60;3.88;;;9.80;99.90;;;;;;4959720;28;20256;-61
2022/09/23 02:26:47;;;;;;;5.35;3.58;;;9.80;99.90;;;;;;4952118;28;20212;-61
2022/09/23 02:29:20;;;;;;;4.87;3.77;;;9.70;99.90;;;;;;4949544;28;20202;-61
2022/09/23 02:31:55;;;;;;;7.15;3.78;;;9.70;99.90;;;;;;4959499;28;20305;-61
2022/09/23 02:34:34;;;;;;;4.30;3.60;;;9.60;99.90;;;;;;4956795;28;20203;-61
2022/09/23 02:37:10;;;;;;;5.63;3.50;;;9.80;99.90;;;;;;4931421;28;20275;-61
2022/09/23 02:39:44;;;;;;;4.97;3.88;;;9.80;99.90;;;;;;4973857;28;20194;-60
2022/09/23 02:42:16;;;;;;;4.20;3.80;;;9.70;99.90;;;;;;4962123;28;20230;-64
2022/09/23 02:44:43;;;;;;;4.63;4.07;;;9.70;99.90;;;;;;4956407;28;20219;-61
2022/09/23 02:47:10;;;;;;;4.07;3.15;;;;;;;;;;4959107;28;20941;-60
2022/09/23 02:49:38;;;;;;;4.53;3.55;;;12.50;99.90;;;;;;4953985;28;20294;-62
2022/09/23 02:52:06;;;;;;;6.43;3.40;;;9.70;99.90;;;;;;4958828;28;20583;-61
2022/09/23 02:54:34;;;;;;;6.57;3.65;;;9.70;99.90;;;;;;4943051;28;20242;-60
2022/09/23 02:57:04;;;;;;;5.10;3.22;;;9.70;99.90;;;;;;4946311;28;22259;-61
2022/09/23 02:59:32;;;;;;;4.32;3.65;;;9.70;99.90;;;;;;4947031;28;20224;-61
2022/09/23 03:02:16;;;;;;;6.13;3.43;;;9.40;99.90;;;;;;4955757;28;20207;-61
2022/09/23 03:04:55;;;;;;;6.20;3.67;;;9.70;99.90;;;;;;4955422;28;20635;-61
2022/09/23 03:07:31;;;;;;;6.73;3.30;;;9.70;99.90;;;;;;4962024;28;20199;-61
2022/09/23 03:10:08;;;;;;;4.17;3.50;;;9.70;99.90;;;;;;4925622;28;20234;-61
2022/09/23 03:12:41;;;;;;;5.25;3.95;;;9.70;99.90;;;;;;4972792;28;20269;-61
2022/09/23 03:15:22;;;;;;;4.65;3.33;;;9.90;99.90;;;;;;4953356;28;21019;-61
2022/09/23 03:17:55;;;;;;;7.15;4.00;;;9.80;99.90;;;;;;4951327;28;20210;-61
2022/09/23 03:20:29;;;;;;;5.43;3.50;;;9.70;99.90;;;;;;4968912;28;20195;-61
2022/09/23 03:23:01;;;;;;;7.40;3.63;;;9.70;99.90;;;;;;4942458;28;20247;-62
2022/09/23 03:25:32;;;;;;;4.50;3.33;;;9.70;99.90;;;;;;4936846;28;20215;-62
2022/09/23 03:28:00;;;;;;;7.28;3.85;;;9.70;99.90;;;;;;4966579;28;20202;-62
2022/09/23 03:30:29;;;;;;;4.18;3.40;;;9.90;99.90;;;;;;4952961;28;20235;-61
2022/09/23 03:32:59;;;;;;;5.30;3.60;;;9.70;99.90;;;;;;4949626;28;20373;-61
2022/09/23 03:35:31;;;;;;;10.73;3.53;;;9.90;99.90;;;;;;4969765;28;20223;-61
2022/09/23 03:38:06;;;;;;;10.98;3.10;;;9.90;99.90;;;;;;4957294;28;21057;-62
2022/09/23 03:40:42;;;;;;;6.60;3.73;;;9.70;99.90;;;;;;4928682;28;20218;-62
2022/09/23 03:43:12;;;;;;;8.13;3.83;;;9.70;99.90;;;;;;4963763;28;21370;-62
2022/09/23 03:45:41;;;;;;;14.23;3.30;;;9.60;99.90;;;;;;4933480;28;20192;-61
2022/09/23 03:48:09;;;;;;;4.32;3.25;;;9.70;99.90;;;;;;4971377;28;20218;-61
2022/09/23 03:50:38;;;;;;;5.53;3.42;;;9.30;99.90;;;;;;4958712;28;20234;-61
2022/09/23 03:53:05;;;;;;;4.50;3.60;;;10.40;99.90;;;;;;4963744;28;20231;-62
2022/09/23 03:55:33;;;;;;;5.03;3.60;;;9.70;99.90;;;;;;4945687;28;20204;-61
2022/09/23 03:58:02;;;;;;;6.55;3.53;;;7.90;99.90;;;;;;4949829;28;20227;-62
2022/09/23 04:00:28;;;;;;;8.50;3.17;;;9.70;99.90;;;;;;4947029;28;20589;-61
2022/09/23 04:02:55;;;;;;;4.03;3.10;;;9.70;99.90;;;;;;4954323;28;20207;-62
2022/09/23 04:05:22;;;;;;;5.68;3.40;;;9.60;99.90;;;;;;4946467;28;20774;-62
2022/09/23 04:07:51;;;;;;;4.43;3.13;;;9.80;99.90;;;;;;4950529;28;20207;-61
2022/09/23 04:10:18;;;;;;;5.97;3.63;;;9.60;99.90;;;;;;4953834;28;20278;-61
2022/09/23 04:12:44;;;;;;;5.93;3.88;;;10.80;99.90;;;;;;4929032;28;20243;-61
2022/09/23 04:15:11;;;;;;;7.00;3.60;;;8.90;99.90;;;;;;4955901;28;20208;-62
2022/09/23 04:17:38;;;;;;;3.40;3.10;;;9.60;99.90;;;;;;4957916;28;20199;-62
2022/09/23 04:20:06;;;;;;;8.23;3.30;;;10.70;99.90;;;;;;4967321;28;20218;-61
2022/09/23 04:22:33;;;;;;;5.93;3.10;;;9.60;99.90;;;;;;4965590;28;20760;-61
2022/09/23 04:25:01;;;;;;;3.42;3.13;;;9.70;99.90;;;;;;4944789;28;22884;-61
2022/09/23 04:27:28;;;;;;;6.45;3.53;;;9.60;99.90;;;;;;4925499;28;20880;-62
2022/09/23 04:29:55;;;;;;;6.17;3.33;;;9.50;99.90;;;;;;4955836;28;20218;-62
2022/09/23 04:32:23;;;;;;;4.87;2.90;;;9.50;99.90;;;;;;4934999;28;20242;-62
2022/09/23 04:34:50;;;;;;;4.38;3.60;;;9.40;99.90;;;;;;4963944;28;20219;-61
2022/09/23 04:37:17;;;;;;;5.10;3.40;;;9.30;99.90;;;;;;4941236;28;20238;-62
2022/09/23 04:39:43;;;;;;;7.60;3.67;;;9.20;99.90;;;;;;4965488;28;20196;-61
2022/09/23 04:42:11;;;;;;;13.47;3.33;;;9.30;99.90;;;;;;4937482;28;20788;-61
2022/09/23 04:44:38;;;;;;;5.50;3.00;;;9.50;99.90;;;;;;4966947;28;20826;-61
2022/09/23 04:47:05;;;;;;;5.40;3.23;;;9.30;99.90;;;;;;4950535;28;20232;-61
2022/09/23 04:49:32;;;;;;;11.30;3.63;;;9.30;99.90;;;;;;4954536;28;20208;-61
2022/09/23 04:51:59;;;;;;;6.28;3.40;;;9.30;99.90;;;;;;4950665;28;20229;-62
2022/09/23 04:54:26;;;;;;;5.17;2.87;;;;;;;;;;4931532;28;20231;-61
2022/09/23 04:56:53;;;;;;;6.43;2.93;;;9.40;99.90;;;;;;4945030;28;20251;-62
2022/09/23 04:59:21;;;;;;;5.27;2.83;;;9.00;99.90;;;;;;4940926;28;20216;-61
2022/09/23 05:01:50;;;;;;;6.77;3.40;;;9.00;99.90;;;;;;4950945;28;20708;-62
2022/09/23 05:04:17;;;;;;;5.23;3.30;;;9.20;99.90;;;;;;4945044;28;20207;-61
2022/09/23 05:06:44;;;;;;;3.00;2.70;;;9.20;99.90;;;;;;4955019;28;20214;-61
2022/09/23 05:09:16;;;;;;;6.83;3.40;;;9.40;99.90;;;;;;4951952;28;21218;-61
2022/09/23 05:11:43;;;;;;;5.00;3.17;;;9.20;99.90;;;;;;4957714;28;20301;-61
2022/09/23 05:14:10;;;;;;;4.83;2.97;;;9.30;99.90;;;;;;4934982;28;20227;-61
2022/09/23 05:16:39;;;;;;;5.70;3.33;;;9.10;99.90;;;;;;4950023;28;20207;-62
2022/09/23 05:19:06;;;;;;;5.37;3.10;;;9.40;99.90;;;;;;4950085;28;20293;-62
2022/09/23 05:21:34;;;;;;;5.00;2.90;;;9.20;99.90;;;;;;4945060;28;20266;-63
2022/09/23 05:24:01;;;;;;;11.33;3.50;;;9.20;99.90;;;;;;4935979;28;20334;-61
2022/09/23 05:26:29;;;;;;;11.47;3.50;;;9.00;99.90;;;;;;4934957;28;20202;-62
2022/09/23 05:28:57;;;;;;;3.53;2.77;;;;;;;;;;4933369;28;20223;-61
2022/09/23 05:31:25;;;;;;;10.00;3.80;;;9.10;99.90;;;;;;4948973;28;20234;-61
2022/09/23 05:33:57;;;;;;;5.30;3.50;;;9.20;99.90;;;;;;4957097;28;20208;-62
2022/09/23 05:36:25;;;;;;;4.57;3.20;;;9.30;99.90;;;;;;4955070;28;20753;-61
2022/09/23 05:38:52;;;;;;;8.57;3.27;;;9.20;99.90;;;;;;4960387;28;20208;-61
2022/09/23 05:41:22;;;;;;;8.93;3.27;;;9.20;99.90;;;;;;4959606;28;20202;-61
2022/09/23 05:43:50;;;;;;;9.50;3.77;;;10.60;99.90;;;;;;4938432;28;20297;-62
2022/09/23 05:46:18;;;;;;;6.27;3.40;;;9.20;99.90;;;;;;4963127;28;20538;-61
2022/09/23 05:48:46;;;;;;;11.60;3.80;;;9.20;99.90;;;;;;4953040;28;20211;-61
2022/09/23 05:51:17;;;;;;;16.43;4.00;;;9.10;99.90;;;;;;4933944;28;20232;-61
2022/09/23 05:53:44;;;;;;;14.03;3.50;;;9.00;99.90;;;;;;4955164;28;20243;-62
2022/09/23 05:56:11;;;;;;;11.53;3.80;;;9.20;99.90;;;;;;4948920;28;20226;-61
2022/09/23 05:58:39;;;;;;;7.50;3.55;;;;;;;;;;4955930;28;20200;-62
2022/09/23 06:01:10;;;;;;;5.77;4.00;;;9.20;99.90;;;;;;4939139;28;20222;-62
2022/09/23 06:03:37;;;;;;;18.77;4.27;;;9.20;99.90;;;;;;4957590;28;20204;-62
2022/09/23 06:06:04;;;;;;;9.00;3.73;;;11.70;99.90;;;;;;4947510;28;20300;-62
2022/09/23 06:08:33;;;;;;;7.23;3.57;;;10.10;99.90;;;;;;4964682;28;20206;-61
2022/09/23 06:11:06;;;;;;;6.83;3.83;;;9.40;99.90;;;;;;4957360;28;20226;-62
2022/09/23 06:13:36;;;;;;;6.30;3.67;;;9.30;99.90;;;;;;4955407;28;20614;-61
2022/09/23 06:16:04;;;;;;;5.07;3.57;;;9.50;99.90;;;;;;4941013;28;21036;-62
2022/09/23 06:18:31;;;;;;;13.50;3.37;;;9.40;99.90;;;;;;4966953;28;20204;-60
2022/09/23 06:21:01;;;;;;;20.65;4.43;;;9.40;99.90;;;;;;4953947;28;20207;-63
2022/09/23 06:23:28;;;;;;;11.30;3.57;;;9.50;99.90;;;;;;4947928;28;20977;-61
2022/09/23 06:26:00;;;;;;;10.27;3.53;;;9.50;99.90;;;;;;4955521;28;20211;-62
2022/09/23 06:28:31;;;;;;;7.07;3.50;;;9.60;99.90;;;;;;4943195;28;20203;-62
2022/09/23 06:30:58;;;;;;;10.67;3.40;;;9.70;99.90;;;;;;4927879;28;20337;-61
2022/09/23 06:33:26;;;;;;;7.03;3.63;;;9.80;99.90;;;;;;4970635;28;20232;-61
2022/09/23 06:35:56;;;;;;;21.90;3.93;;;9.80;99.90;;;;;;4959355;28;20207;-61
2022/09/23 06:38:23;;;;;;;11.73;3.13;;;9.90;99.90;;;;;;4974890;28;20699;-61
2022/09/23 06:40:50;;;;;;;7.00;3.67;;;10.00;99.90;;;;;;4963973;28;20210;-61
2022/09/23 06:43:18;;;;;;;5.20;3.67;;;9.40;99.90;;;;;;4950927;28;20243;-62
2022/09/23 06:45:45;;;;;;;8.00;3.30;;;9.20;99.90;;;;;;4932640;28;20219;-62
2022/09/23 06:48:12;;;;;;;8.27;3.88;;;10.10;99.90;;;;;;4966689;28;20209;-62
2022/09/23 06:50:39;;;;;;;4.70;3.10;;;9.10;99.90;;;;;;4961005;28;20204;-62
2022/09/23 06:53:06;;;;;;;13.93;3.45;;;10.00;99.90;;;;;;4961389;28;20736;-61
2022/09/23 06:55:32;;;;;;;17.43;4.13;;;10.20;99.90;;;;;;4968167;28;20211;-61
2022/09/23 06:57:59;;;;;;;22.80;4.97;;;10.50;99.90;;;;;;4964396;28;21176;-61
2022/09/23 07:00:28;;;;;;;38.42;6.70;;;10.30;99.90;;;;;;4945501;28;20685;-61
2022/09/23 07:02:55;;;;;;;5.93;3.33;;;10.50;99.90;;;;;;4944407;28;20744;-61
2022/09/23 07:05:22;;;;;;;6.15;3.35;;;10.40;99.90;;;;;;4958257;28;20215;-61
2022/09/23 07:07:49;;;;;;;15.98;3.70;;;10.60;99.90;;;;;;4958642;28;20223;-61
2022/09/23 07:10:16;;;;;;;7.80;3.42;;;10.50;99.90;;;;;;4966202;28;20717;-62
2022/09/23 07:12:43;;;;;;;5.40;3.17;;;10.50;99.90;;;;;;4960180;28;20230;-61
2022/09/23 07:15:11;;;;;;;4.68;2.72;;;10.50;99.90;;;;;;4954631;28;20203;-61
2022/09/23 07:17:41;;;;;;;8.60;2.95;;;10.60;99.90;;;;;;4944862;28;20725;-61
2022/09/23 07:20:10;;;;;;;9.13;3.63;;;11.00;99.90;;;;;;4966973;28;20238;-61
2022/09/23 07:22:37;;;;;;;8.43;3.30;;;10.80;99.90;;;;;;4961095;28;20235;-61
2022/09/23 07:25:05;;;;;;;4.53;3.10;;;10.80;99.90;;;;;;4968959;28;20210;-61
2022/09/23 07:27:32;;;;;;;6.82;3.10;;;10.80;99.90;;;;;;4973485;28;20195;-62
2022/09/23 07:29:59;;;;;;;4.97;2.92;;;10.90;99.90;;;;;;4958780;28;20228;-62
2022/09/23 07:32:26;;;;;;;8.90;3.13;;;;;;;;;;4940905;28;20227;-61
2022/09/23 07:34:55;;;;;;;8.15;3.10;;;11.00;99.90;;;;;;4951408;28;20205;-61
2022/09/23 07:37:21;;;;;;;6.57;2.80;;;10.90;99.90;;;;;;4950060;28;20308;-62
2022/09/23 07:39:49;;;;;;;6.00;2.90;;;11.00;99.90;;;;;;4968622;28;21914;-62
2022/09/23 07:42:17;;;;;;;5.45;2.65;;;11.10;99.90;;;;;;4966279;28;20305;-61
2022/09/23 07:44:46;;;;;;;4.43;2.40;;;11.10;99.60;;;;;;4960722;28;20204;-61
2022/09/23 07:47:13;;;;;;;6.10;2.63;;;11.10;99.20;;;;;;4939356;28;20298;-61
2022/09/23 07:49:40;;;;;;;2.88;2.30;;;11.20;99.40;;;;;;4954081;28;20238;-62
2022/09/23 07:52:08;;;;;;;3.30;2.38;;;11.20;98.30;;;;;;4970492;28;20208;-62
2022/09/23 07:54:35;;;;;;;5.97;3.25;;;11.30;98.20;;;;;;4937391;28;20254;-61
2022/09/23 07:57:02;;;;;;;9.00;2.78;;;11.20;95.90;;;;;;4966915;28;20208;-61
2022/09/23 07:59:29;;;;;;;6.68;2.80;;;11.30;94.40;;;;;;4944228;28;20214;-62
2022/09/23 08:01:56;;;;;;;3.47;2.80;;;11.20;94.50;;;;;;4945303;28;20207;-62
2022/09/23 08:04:26;;;;;;;5.40;3.13;;;11.40;91.70;;;;;;4964878;28;20207;-62
2022/09/23 08:06:55;;;;;;;4.53;2.83;;;11.50;92.40;;;;;;4960938;28;20295;-62
2022/09/23 08:09:26;;;;;;;2.53;2.33;;;11.50;90.10;;;;;;4955018;28;20692;-62
2022/09/23 08:11:53;;;;;;;4.43;2.80;;;11.60;87.90;;;;;;4971513;28;20204;-62
2022/09/23 08:14:21;;;;;;;3.78;2.83;;;11.60;85.10;;;;;;4958865;28;20590;-61
2022/09/23 08:16:48;;;;;;;7.88;3.40;;;11.50;79.80;;;;;;4958037;28;20238;-62
2022/09/23 08:19:15;;;;;;;3.42;2.55;;;11.70;76.70;;;;;;4943421;28;20222;-61
2022/09/23 08:21:42;;;;;;;5.85;3.30;;;11.60;69.80;;;;;;4956607;28;20230;-62
2022/09/23 08:24:13;;;;;;;7.32;3.22;;;11.70;65.00;;;;;;4972975;28;20196;-62
2022/09/23 08:26:41;;;;;;;3.88;3.00;;;11.70;59.50;;;;;;4951407;28;20200;-61
2022/09/23 08:29:10;;;;;;;5.30;3.20;;;11.90;54.70;;;;;;4967310;28;20230;-62
2022/09/23 08:31:36;;;;;;;9.75;3.58;;;12.70;49.90;;;;;;4938275;28;20290;-62
2022/09/23 08:34:03;;;;;;;6.68;3.45;;;12.00;42.80;;;;;;4936567;28;20232;-62
2022/09/23 08:36:31;;;;;;;8.88;3.63;;;12.00;42.00;;;;;;4969887;28;20207;-62
2022/09/23 08:38:58;;;;;;;4.78;3.35;;;12.10;32.30;;;;;;4977995;28;20609;-63
2022/09/23 08:41:34;;;;;;;3.80;2.97;;;12.20;24.90;;;;;;4959088;28;20864;-62
2022/09/23 08:44:10;;;;;;;4.90;3.05;;;12.20;21.70;;;;;;4972597;28;20240;-62
2022/09/23 08:46:43;;;;;;;3.00;2.70;;;12.10;14.90;;;;;;4944905;28;20203;-63
2022/09/23 08:49:13;;;;;;;6.32;2.70;;;13.40;8.70;;;;;;4935162;28;20715;-62
2022/09/23 08:51:45;;;;;;;7.63;3.03;;;12.10;8.50;;;;;;4960471;28;20224;-63
2022/09/23 08:54:16;;;;;;;7.50;3.50;;;12.40;3.50;;;;;;4957973;28;20262;-62
2022/09/23 08:56:48;;;;;;;4.38;3.30;;;12.40;3.60;;;;;;4950714;28;20228;-63
2022/09/23 08:59:22;;;;;;;6.15;2.83;;;12.50;3.50;;;;;;4959664;28;20222;-63
2022/09/23 09:01:52;;;;;;;3.45;3.03;;;12.70;3.80;;;;;;4946315;28;20283;-63
2022/09/23 09:04:26;;;;;;;10.80;3.20;;;12.60;1.00;;;;;;4942416;28;20235;-63
2022/09/23 09:06:58;;;;;;;6.35;3.03;;;12.60;3.70;;;;;;4958035;28;20204;-63
2022/09/23 09:09:28;;;;;;;6.05;2.55;;;14.00;1.00;;;;;;4970904;28;20676;-62
2022/09/23 09:12:01;;;;;;;8.23;3.60;;;12.90;1.00;;;;;;4956036;28;20230;-63
2022/09/23 09:14:36;;;;;;;5.93;2.88;;;12.80;1.00;;;;;;4957694;28;20235;-63
2022/09/23 09:17:06;;;;;;;5.65;3.05;;;12.90;1.00;;;;;;4942331;28;20357;-63
2022/09/23 09:19:54;;;;;;;5.88;3.08;;;12.90;1.00;;;;;;4938665;28;20227;-63
2022/09/23 09:22:23;;;;;;;7.60;3.88;;;12.80;1.00;;;;;;4965112;28;20965;-61
2022/09/23 09:24:54;;;;;;;6.78;4.03;;;13.00;1.00;;;;;;4942862;28;20725;-63
2022/09/23 09:27:20;;;;;;;9.10;3.53;;;13.10;1.00;;;;;;4951737;28;20521;-63
2022/09/23 09:29:52;;;;;;;5.28;3.35;;;13.10;1.00;;;;;;4967522;28;20229;-63
2022/09/23 09:32:32;;;;;;;3.63;3.03;;;13.00;1.00;;;;;;4966156;28;21037;-63
2022/09/23 09:35:05;;;;;;;6.60;3.47;;;13.10;1.00;;;;;;4926279;28;20231;-63
2022/09/23 09:37:39;;;;;;;4.78;3.30;;;13.00;1.00;;;;;;4961633;28;20231;-63
2022/09/23 09:40:08;;;;;;;3.97;3.30;;;13.10;1.00;;;;;;4968927;28;20200;-64
2022/09/23 09:42:39;;;;;;;6.38;3.28;;;13.20;1.00;;;;;;4957067;28;20214;-63
2022/09/23 09:45:15;;;;;;;5.68;2.90;;;13.30;1.00;;;;;;4958368;28;20668;-63
2022/09/23 09:47:50;;;;;;;9.85;3.78;;;13.20;1.00;;;;;;4967594;28;20214;-63
2022/09/23 09:50:20;;;;;;;4.57;3.58;;;13.40;1.00;;;;;;4924717;28;20230;-63
2022/09/23 09:52:48;;;;;;;4.75;3.28;;;13.10;1.00;;;;;;4957509;28;20251;-63
2022/09/23 09:55:26;;;;;;;5.45;3.17;;;13.40;1.00;;;;;;4954516;28;20338;-63
2022/09/23 09:58:04;;;;;;;4.93;3.20;;;11.00;1.00;;;;;;4936107;28;20238;-63
2022/09/23 10:00:41;;;;;;;6.28;3.10;;;13.50;1.00;;;;;;4966402;28;20223;-63
2022/09/23 10:03:25;;;;;;;5.60;3.67;;;13.50;1.00;;;;;;4961568;28;20461;-63
2022/09/23 10:05:55;;;;;;;3.55;2.83;;;13.50;1.00;;;;;;4928568;28;20879;-63
2022/09/23 10:08:26;;;;;;;5.80;3.42;;;13.60;1.00;;;;;;4955395;28;20202;-63
2022/09/23 10:10:59;;;;;;;4.38;3.53;;;12.90;1.00;;;;;;4940905;28;20597;-63
2022/09/23 10:13:29;;;;;;;7.05;3.80;;;13.70;1.00;;;;;;4948788;28;21081;-63
2022/09/23 10:15:58;;;;;;;7.78;4.40;;;13.70;1.00;;;;;;4963273;23;20266;-63
2022/09/23 10:18:30;;;;;;;6.25;3.50;;;13.70;1.00;;;;;;4970733;28;20234;-63
2022/09/23 10:21:07;;;;;;;4.40;3.15;;;13.90;1.00;;;;;;4959709;28;21532;-64
2022/09/23 10:23:38;;;;;;;5.82;2.80;;;13.80;1.00;;;;;;4980390;28;20199;-63
2022/09/23 10:26:07;;;;;;;5.18;3.13;;;11.50;1.00;;;;;;4961810;28;20203;-63
2022/09/23 10:28:41;;;;;;;3.28;2.78;;;13.90;1.00;;;;;;4968448;28;20203;-63
2022/09/23 10:31:12;;;;;;;8.52;2.83;;;13.90;1.00;;;;;;4971537;28;20917;-63
2022/09/23 10:33:48;;;;;;;5.05;3.22;;;14.00;1.00;;;;;;4984249;28;20874;-63
2022/09/23 10:36:16;;;;;;;9.90;3.33;;;14.00;1.00;;;;;;4951255;28;20345;-64
2022/09/23 10:38:43;;;;;;;9.05;3.70;;;14.10;1.00;;;;;;4975897;28;20300;-63
2022/09/23 10:47:16;;;;;;;4.03;3.22;;;14.20;1.00;;;;;;5013356;23;21153;-63
2022/09/23 10:50:06;;;;;;;6.50;3.50;;;14.30;1.00;;;;;;5016273;28;20208;-63
2022/09/23 10:52:52;;;;;;;7.03;4.07;;;14.30;1.00;;;;;;4961093;28;20237;-63
2022/09/23 10:55:38;;;;;;;4.78;3.88;;;14.30;1.00;;;;;;5029409;28;20230;-63
2022/09/23 10:58:25;;;;;;;5.65;3.92;;;14.30;1.00;;;;;;5002000;28;20868;-63
2022/09/23 11:01:04;;;;;;;5.25;3.85;;;14.30;1.00;;;;;;4993178;28;20520;-63
2022/09/23 11:04:10;;;;;;;7.97;3.92;;;14.30;1.00;;;;;;5017292;28;20225;-63
2022/09/23 11:06:49;;;;;;;6.18;3.70;;;14.40;1.00;;;;;;4992823;28;20230;-63
2022/09/23 11:09:27;;;;;;;6.85;3.80;;;14.60;1.00;;;;;;5019616;22;20232;-63
2022/09/23 11:12:07;;;;;;;7.93;4.22;;;14.40;1.00;;;;;;4996328;28;20201;-64
2022/09/23 11:14:52;;;;;;;3.97;3.53;;;14.30;1.00;;;;;;4984426;28;20230;-63
2022/09/23 11:17:44;;;;;;;5.70;3.22;;;14.60;1.00;;;;;;4966643;28;20229;-64
2022/09/23 11:20:34;;;;;;;4.55;3.70;;;14.80;1.00;;;;;;4979265;28;20226;-64
2022/09/23 11:23:40;;;;;;;8.10;4.35;;;14.70;1.00;;;;;;4955905;28;20663;-64
2022/09/23 11:26:20;;;;;;;7.57;4.53;;;14.60;1.00;;;;;;4993708;22;20704;-63
2022/09/23 11:29:03;;;;;;;6.45;4.82;;;14.80;1.00;;;;;;4982604;28;20242;-65
2022/09/23 11:31:39;;;;;;;13.43;4.88;;;14.90;1.00;;;;;;4958160;28;20231;-64
2022/09/23 11:34:25;;;;;;;5.47;4.60;;;15.10;1.00;;;;;;4988754;28;20242;-64
2022/09/23 11:37:02;;;;;;;9.45;4.47;;;11.40;1.00;;;;;;4950156;28;20237;-64
2022/09/23 11:39:31;;;;;;;5.43;4.35;;;;;;;;;;4969969;28;20669;-64
2022/09/23 11:42:02;;;;;;;5.05;4.15;;;14.90;1.00;;;;;;4976286;28;20281;-64
2022/09/23 11:44:33;;;;;;;6.28;4.22;;;15.00;1.00;;;;;;4987331;28;20203;-64
2022/09/23 11:47:06;;;;;;;6.05;4.15;;;15.00;1.00;;;;;;4980230;28;20722;-64
2022/09/23 11:49:38;;;;;;;6.60;4.10;;;14.90;1.00;;;;;;4985162;28;20218;-64
2022/09/23 11:52:12;;;;;;;4.78;3.85;;;14.90;1.00;;;;;;4966529;28;20219;-64
2022/09/23 11:54:45;;;;;;;9.95;4.22;;;14.90;1.00;;;;;;4969914;28;20265;-64
2022/09/23 11:57:22;;;;;;;13.57;4.60;;;15.00;1.00;;;;;;4980098;28;20215;-64
2022/09/23 11:59:55;;;;;;;11.38;4.85;;;15.00;1.00;;;;;;4954634;28;20830;-64
2022/09/23 12:02:27;;;;;;;8.10;4.20;;;15.00;1.00;;;;;;4970897;28;20235;-64
2022/09/23 12:05:01;;;;;;;6.18;4.43;;;15.10;1.00;;;;;;4969173;28;20230;-64
2022/09/23 12:07:43;;;;;;;10.25;4.50;;;15.10;1.00;;;;;;4952082;28;20250;-64
2022/09/23 12:10:12;;;;;;;17.13;4.70;;;15.20;1.00;;;;;;4972631;28;20224;-61
2022/09/23 12:12:46;;;;;;;5.57;3.95;;;13.30;1.00;;;;;;4972611;28;20230;-61
2022/09/23 12:15:23;;;;;;;4.70;3.85;;;15.30;1.00;;;;;;4972194;28;20234;-61
2022/09/23 12:18:10;;;;;;;4.68;3.45;;;15.30;1.00;;;;;;4969079;28;20226;-62
2022/09/23 12:21:11;;;;;;;9.38;4.05;;;15.30;1.00;;;;;;4967941;28;20223;-64
2022/09/23 12:23:54;;;;;;;6.80;3.70;;;15.40;1.00;;;;;;4941380;22;20623;-64
2022/09/23 12:26:24;;;;;;;7.05;4.45;;;15.40;1.00;;;;;;4938763;28;20591;-64
2022/09/23 12:28:54;;;;;;;15.18;4.18;;;15.40;1.00;;;;;;4960466;28;20514;-64
2022/09/23 12:31:29;;;;;;;9.50;4.63;;;15.40;1.00;;;;;;4927799;28;20218;-64
2022/09/23 12:33:57;;;;;;;7.35;4.40;;;15.40;1.00;;;;;;4952928;28;20519;-64
2022/09/23 12:36:27;;;;;;;6.68;3.75;;;15.70;1.00;;;;;;4958084;28;20228;-64
2022/09/23 12:39:02;;;;;;;7.35;4.20;;;15.50;1.00;;;;;;4912503;28;20231;-64
2022/09/23 12:41:35;;;;;;;7.85;3.95;;;15.50;1.00;;;;;;4970022;28;21057;-63
2022/09/23 12:44:15;;;;;;;3.67;2.88;;;15.60;1.00;;;;;;4942835;28;20251;-62
2022/09/23 12:46:42;;;;;;;6.22;4.22;;;15.50;1.00;;;;;;4941225;28;20219;-62
2022/09/23 12:49:23;;;;;;;11.82;4.28;;;;;;;;;;4937427;28;20243;-62
2022/09/23 12:52:12;;;;;;;6.22;4.00;;;15.50;1.00;;;;;;4959470;28;20223;-64
2022/09/23 12:54:42;;;;;;;6.88;4.50;;;15.50;1.00;;;;;;4899538;28;20246;-63
2022/09/23 12:57:11;;;;;;;4.85;3.67;;;15.50;1.00;;;;;;4955083;28;20923;-62
2022/09/23 12:59:56;;;;;;;10.15;5.15;;;15.50;1.00;;;;;;4938300;28;20637;-64
2022/09/23 13:02:32;;;;;;;6.72;4.70;;;15.50;1.00;;;;;;4937541;28;20223;-64
2022/09/23 13:08:08;;;;;;;10.13;4.63;;;15.50;1.00;;;;;;4944744;28;20247;-63
2022/09/23 13:10:42;;;;;;;9.82;4.28;;;15.50;1.00;;;;;;4912240;28;20220;-63
2022/09/23 13:13:20;;;;;;;8.48;4.03;;;15.50;1.00;;;;;;4949598;28;20282;-63
2022/09/23 13:15:48;;;;;;;6.55;4.22;;;15.50;1.00;;;;;;4946129;28;20227;-63
2022/09/23 13:18:40;;;;;;;7.40;4.38;;;15.50;1.00;;;;;;4943650;28;20211;-65
2022/09/23 13:21:17;;;;;;;4.35;3.95;;;17.10;1.00;;;;;;4947496;28;20744;-62
2022/09/23 13:24:16;;;;;;;8.02;3.80;;;17.10;1.00;;;;;;4957550;28;20250;-62
2022/09/23 13:26:47;;;;;;;4.68;3.92;;;15.50;1.00;;;;;;4929654;28;20492;-62
2022/09/23 13:29:19;;;;;;;6.47;3.95;;;15.50;1.00;;;;;;4957586;28;20198;-62